createdAt,value
2019-02-18T00:01:41.848Z,66.20
2019-02-18T00:04:10.228Z,66.30
2019-02-18T00:06:38.669Z,66.00
2019-02-18T00:09:06.773Z,66.20
2019-02-18T00:14:08.601Z,66.10
2019-02-18T00:16:37.279Z,66.40
2019-02-18T00:19:05.816Z,66.00
2019-02-18T00:21:33.887Z,66.00
2019-02-18T00:24:02.351Z,66.10
2019-02-18T00:26:30.741Z,65.80
2019-02-18T00:28:59.407Z,66.30
2019-02-18T00:31:27.103Z,65.60
2019-02-18T00:33:55.076Z,66.00
2019-02-18T00:36:23.126Z,66.60
2019-02-18T00:38:50.704Z,66.00
2019-02-18T00:41:19.247Z,66.20
2019-02-18T00:43:47.460Z,68.30
2019-02-18T00:46:16.758Z,66.30
2019-02-18T00:48:45.175Z,67.10
2019-02-18T00:51:13.902Z,67.10
2019-02-18T00:53:42.240Z,68.10
2019-02-18T00:56:09.893Z,68.90
2019-02-18T00:58:38.231Z,69.10
2019-02-18T01:01:06.943Z,69.20
2019-02-18T01:03:35.211Z,68.30
2019-02-18T01:06:03.193Z,67.50
2019-02-18T01:08:31.596Z,67.70
2019-02-18T01:11:00.402Z,67.30
2019-02-18T01:13:28.792Z,67.50
2019-02-18T01:15:56.807Z,68.10
2019-02-18T01:18:25.800Z,67.30
2019-02-18T01:20:53.097Z,67.00
2019-02-18T01:23:20.719Z,68.10
2019-02-18T01:25:48.687Z,67.40
2019-02-18T01:28:16.235Z,67.90
2019-02-18T01:30:44.891Z,67.20
2019-02-18T01:33:13.716Z,67.60
2019-02-18T01:35:41.267Z,67.90
2019-02-18T01:38:09.519Z,67.30
2019-02-18T01:40:38.405Z,67.20
2019-02-18T01:43:06.415Z,67.20
2019-02-18T01:45:34.701Z,67.00
2019-02-18T01:48:03.269Z,67.70
2019-02-18T01:50:31.150Z,67.40
2019-02-18T01:53:01.712Z,67.20
2019-02-18T01:55:30.079Z,68.10
2019-02-18T01:57:58.823Z,68.10
2019-02-18T02:00:27.008Z,67.80
2019-02-18T02:02:56.784Z,68.10
2019-02-18T02:05:25.730Z,68.10
2019-02-18T02:07:56.639Z,67.30
2019-02-18T02:10:24.820Z,67.10
2019-02-18T02:13:24.956Z,67.80
2019-02-18T02:15:53.340Z,68.30
2019-02-18T02:18:21.436Z,67.80
2019-02-18T02:20:49.106Z,68.10
2019-02-18T02:23:17.179Z,68.50
2019-02-18T02:25:45.212Z,69.30
2019-02-18T02:28:13.692Z,69.90
2019-02-18T02:30:41.995Z,69.20
2019-02-18T02:33:10.469Z,69.50
2019-02-18T02:35:39.377Z,68.30
2019-02-18T02:38:08.229Z,68.90
2019-02-18T02:40:36.479Z,68.30
2019-02-18T02:43:05.305Z,68.30
2019-02-18T02:45:34.248Z,68.90
2019-02-18T02:48:01.961Z,68.60
2019-02-18T02:50:30.456Z,67.90
2019-02-18T02:52:58.420Z,68.60
2019-02-18T02:55:26.785Z,68.30
2019-02-18T02:57:54.756Z,68.30
2019-02-18T03:00:22.876Z,68.00
2019-02-18T03:02:51.804Z,68.70
2019-02-18T03:05:20.143Z,68.50
2019-02-18T03:07:48.597Z,68.80
2019-02-18T03:10:17.285Z,68.50
2019-02-18T03:12:44.884Z,68.90
2019-02-18T03:15:14.384Z,68.90
2019-02-18T03:17:42.874Z,69.10
2019-02-18T03:20:11.090Z,68.20
2019-02-18T03:22:39.490Z,69.00
2019-02-18T03:25:23.822Z,68.50
2019-02-18T03:27:54.777Z,67.70
2019-02-18T03:30:40.866Z,68.20
2019-02-18T03:33:09.136Z,68.80
2019-02-18T03:35:37.179Z,68.80
2019-02-18T03:38:05.797Z,68.80
2019-02-18T03:40:33.772Z,68.50
2019-02-18T03:43:02.443Z,68.90
2019-02-18T03:45:31.045Z,68.90
2019-02-18T03:48:03.313Z,69.10
2019-02-18T03:50:31.055Z,69.10
2019-02-18T03:52:59.660Z,69.10
2019-02-18T03:55:29.169Z,69.00
2019-02-18T03:57:58.126Z,69.90
2019-02-18T04:00:28.291Z,69.10
2019-02-18T04:02:57.815Z,69.10
2019-02-18T04:05:25.918Z,69.10
2019-02-18T04:07:54.645Z,69.10
2019-02-18T04:10:22.674Z,69.10
2019-02-18T04:12:50.996Z,69.00
2019-02-18T04:17:46.744Z,69.60
2019-02-18T04:20:15.923Z,69.80
2019-02-18T04:22:44.307Z,69.90
2019-02-18T04:25:12.781Z,70.50
2019-02-18T04:27:44.927Z,69.50
2019-02-18T04:30:13.733Z,69.30
2019-02-18T04:32:42.464Z,69.00
2019-02-18T04:35:10.000Z,69.30
2019-02-18T04:37:37.722Z,69.60
2019-02-18T04:40:06.359Z,71.10
2019-02-18T04:42:34.331Z,69.80
2019-02-18T04:45:04.647Z,70.00
2019-02-18T04:47:32.794Z,69.50
2019-02-18T04:52:28.466Z,69.60
2019-02-18T04:54:56.996Z,69.00
2019-02-18T04:57:25.744Z,69.00
2019-02-18T04:59:53.383Z,69.10
2019-02-18T05:02:21.781Z,69.00
2019-02-18T05:04:50.236Z,68.90
2019-02-18T05:07:20.038Z,70.00
2019-02-18T05:12:15.924Z,70.80
2019-02-18T05:14:44.282Z,70.70
2019-02-18T05:17:12.664Z,70.30
2019-02-18T05:19:40.960Z,70.60
2019-02-18T05:22:09.593Z,70.40
2019-02-18T05:24:37.714Z,70.20
2019-02-18T05:27:06.052Z,72.10
2019-02-18T05:29:34.138Z,71.50
2019-02-18T05:32:03.129Z,70.70
2019-02-18T05:34:31.746Z,70.80
2019-02-18T05:36:59.394Z,70.30
2019-02-18T05:39:27.668Z,70.50
2019-02-18T05:41:55.542Z,70.60
2019-02-18T05:44:23.783Z,71.00
2019-02-18T05:46:52.250Z,71.00
2019-02-18T05:51:48.393Z,70.70
2019-02-18T05:54:16.391Z,70.30
2019-02-18T05:56:44.476Z,70.00
2019-02-18T05:59:12.646Z,70.50
2019-02-18T06:01:40.649Z,70.80
2019-02-18T06:04:09.484Z,70.80
2019-02-18T06:06:37.574Z,71.70
2019-02-18T06:11:33.857Z,71.50
2019-02-18T06:14:02.595Z,71.10
2019-02-18T06:16:30.009Z,71.10
2019-02-18T06:18:57.789Z,70.80
2019-02-18T06:21:26.560Z,70.60
2019-02-18T06:23:55.017Z,70.60
2019-02-18T06:26:23.143Z,70.80
2019-02-18T06:31:20.045Z,71.10
2019-02-18T06:33:48.352Z,75.00
2019-02-18T06:36:18.858Z,71.60
2019-02-18T06:38:46.982Z,71.50
2019-02-18T06:41:15.087Z,71.10
2019-02-18T06:43:43.095Z,71.10
2019-02-18T06:46:32.705Z,70.70
2019-02-18T06:49:08.200Z,71.20
2019-02-18T06:51:36.989Z,70.60
2019-02-18T06:54:04.739Z,71.30
2019-02-18T06:56:54.900Z,71.30
2019-02-18T06:59:32.812Z,71.30
2019-02-18T07:04:40.859Z,70.90
2019-02-18T07:07:32.263Z,71.40
2019-02-18T07:10:03.748Z,71.10
2019-02-18T07:12:41.546Z,70.90
2019-02-18T07:15:10.811Z,70.90
2019-02-18T07:17:41.158Z,70.60
2019-02-18T07:20:09.524Z,70.40
2019-02-18T07:22:38.260Z,70.00
2019-02-18T07:25:07.469Z,70.10
2019-02-18T07:27:35.957Z,70.20
2019-02-18T07:30:05.119Z,70.50
2019-02-18T07:32:33.493Z,70.00
2019-02-18T07:35:01.622Z,69.80
2019-02-18T07:37:29.654Z,70.50
2019-02-18T07:40:01.668Z,69.90
2019-02-18T07:42:27.447Z,69.70
2019-02-18T07:44:54.841Z,70.30
2019-02-18T07:47:23.193Z,69.10
2019-02-18T07:50:01.812Z,69.30
2019-02-18T07:52:30.329Z,69.30
2019-02-18T07:54:58.332Z,70.00
2019-02-18T07:57:26.304Z,69.50
2019-02-18T07:59:54.691Z,69.00
2019-02-18T08:02:23.268Z,69.10
2019-02-18T08:04:51.773Z,69.90
2019-02-18T08:07:20.133Z,69.60
2019-02-18T08:09:49.390Z,68.50
2019-02-18T08:12:17.546Z,68.10
2019-02-18T08:14:45.656Z,68.00
2019-02-18T08:17:14.211Z,67.70
2019-02-18T08:19:42.647Z,66.90
2019-02-18T08:22:11.085Z,66.80
2019-02-18T08:24:39.603Z,67.00
2019-02-18T08:29:34.943Z,66.00
2019-02-18T08:32:03.201Z,65.80
2019-02-18T08:34:36.703Z,65.00
2019-02-18T08:37:05.587Z,63.40
2019-02-18T08:39:34.248Z,63.60
2019-02-18T08:42:02.417Z,64.10
2019-02-18T08:44:30.585Z,63.20
2019-02-18T08:46:59.019Z,60.50
2019-02-18T08:49:27.089Z,60.40
2019-02-18T08:51:55.062Z,60.90
2019-02-18T08:54:23.424Z,57.80
2019-02-18T08:56:52.071Z,58.60
2019-02-18T08:59:20.587Z,57.60
2019-02-18T09:01:49.480Z,57.30
2019-02-18T09:04:17.815Z,55.80
2019-02-18T09:06:46.137Z,56.10
2019-02-18T09:09:14.717Z,53.00
2019-02-18T09:11:43.012Z,53.00
2019-02-18T09:14:11.779Z,52.10
2019-02-18T09:16:39.748Z,51.40
2019-02-18T09:19:08.019Z,50.60
2019-02-18T09:21:36.153Z,50.50
2019-02-18T09:24:23.546Z,50.90
2019-02-18T09:26:52.342Z,50.40
2019-02-18T09:29:23.135Z,48.70
2019-02-18T09:31:52.157Z,48.80
2019-02-18T09:34:20.747Z,48.10
2019-02-18T09:36:48.304Z,47.20
2019-02-18T09:39:30.691Z,48.00
2019-02-18T09:41:50.615Z,45.60
2019-02-18T09:44:18.951Z,45.70
2019-02-18T09:46:47.339Z,46.40
2019-02-18T09:49:15.586Z,41.80
2019-02-18T09:51:43.930Z,41.20
2019-02-18T09:54:12.204Z,39.00
2019-02-18T09:56:40.006Z,38.30
2019-02-18T09:59:08.428Z,39.20
2019-02-18T10:01:36.779Z,36.80
2019-02-18T10:04:04.662Z,37.60
2019-02-18T10:06:33.048Z,36.60
2019-02-18T10:09:01.432Z,38.30
2019-02-18T10:11:29.736Z,35.40
2019-02-18T10:13:57.669Z,35.30
2019-02-18T10:16:26.068Z,34.50
2019-02-18T10:18:54.434Z,33.10
2019-02-18T10:21:23.215Z,32.80
2019-02-18T10:23:50.941Z,32.80
2019-02-18T10:26:19.482Z,31.60
2019-02-18T10:28:47.874Z,31.40
2019-02-18T10:31:17.142Z,30.80
2019-02-18T10:33:45.791Z,30.70
2019-02-18T10:36:14.331Z,31.00
2019-02-18T10:38:42.711Z,30.00
2019-02-18T10:41:11.199Z,28.20
2019-02-18T10:43:39.258Z,28.40
2019-02-18T10:46:08.160Z,28.00
2019-02-18T10:48:36.524Z,26.80
2019-02-18T10:51:05.137Z,27.20
2019-02-18T10:53:33.175Z,27.40
2019-02-18T10:56:04.642Z,24.50
2019-02-18T10:58:34.072Z,24.50
2019-02-18T11:01:03.452Z,23.60
2019-02-18T11:03:31.972Z,20.60
2019-02-18T11:06:01.042Z,19.60
2019-02-18T11:08:29.981Z,19.40
2019-02-18T11:11:05.985Z,18.80
2019-02-18T11:13:34.049Z,18.60
2019-02-18T11:16:03.073Z,17.70
2019-02-18T11:18:31.632Z,17.10
2019-02-18T11:23:29.832Z,16.50
2019-02-18T11:26:00.002Z,14.80
2019-02-18T11:28:29.341Z,14.60
2019-02-18T11:30:57.512Z,16.00
2019-02-18T11:33:25.761Z,16.80
2019-02-18T11:38:22.313Z,13.80
2019-02-18T11:40:50.539Z,16.10
2019-02-18T11:43:18.892Z,14.20
2019-02-18T11:45:47.169Z,13.70
2019-02-18T11:48:17.066Z,13.80
2019-02-18T11:50:45.201Z,14.00
2019-02-18T11:53:12.493Z,14.60
2019-02-18T11:55:42.553Z,14.00
2019-02-18T12:00:38.296Z,15.10
2019-02-18T12:03:11.605Z,15.50
2019-02-18T12:05:38.070Z,16.30
2019-02-18T12:08:05.769Z,16.40
2019-02-18T12:10:34.713Z,16.90
2019-02-18T12:13:02.831Z,16.10
2019-02-18T12:15:31.271Z,14.80
2019-02-18T12:18:00.145Z,13.10
2019-02-18T12:20:29.599Z,15.60
2019-02-18T12:22:57.800Z,13.70
2019-02-18T12:27:54.363Z,13.70
2019-02-18T12:30:22.511Z,15.20
2019-02-18T12:32:51.327Z,16.20
2019-02-18T12:35:30.272Z,16.70
2019-02-18T12:37:55.331Z,16.90
2019-02-18T12:40:21.260Z,17.80
2019-02-18T12:42:49.866Z,16.80
2019-02-18T12:45:18.665Z,16.70
2019-02-18T12:47:46.546Z,22.30
2019-02-18T12:52:43.296Z,20.30
2019-02-18T12:55:12.628Z,19.60
2019-02-18T12:57:41.184Z,19.70
2019-02-18T13:00:09.675Z,20.60
2019-02-18T13:02:44.179Z,22.10
2019-02-18T13:05:08.662Z,23.10
2019-02-18T13:07:37.174Z,22.00
2019-02-18T13:10:06.444Z,21.20
2019-02-18T13:12:37.667Z,21.60
2019-02-18T13:15:07.989Z,22.50
2019-02-18T13:17:38.953Z,24.00
2019-02-18T13:20:07.258Z,24.40
2019-02-18T13:22:35.487Z,24.60
2019-02-18T13:25:04.511Z,25.20
2019-02-18T13:27:35.978Z,25.50
2019-02-18T13:30:13.324Z,25.50
2019-02-18T13:32:45.634Z,25.20
2019-02-18T13:35:41.684Z,25.20
2019-02-18T13:38:11.528Z,25.50
2019-02-18T13:40:42.115Z,25.10
2019-02-18T13:43:12.901Z,30.00
2019-02-18T13:45:43.716Z,27.90
2019-02-18T13:48:12.221Z,26.90
2019-02-18T13:53:09.792Z,27.60
2019-02-18T13:55:37.447Z,26.80
2019-02-18T13:58:06.532Z,37.00
2019-02-18T14:00:34.520Z,27.10
2019-02-18T14:03:03.187Z,27.50
2019-02-18T14:05:32.319Z,27.20
2019-02-18T14:08:02.046Z,28.30
2019-02-18T14:10:31.341Z,26.40
2019-02-18T14:13:01.971Z,27.60
2019-02-18T14:15:30.371Z,28.00
2019-02-18T14:18:00.620Z,28.20
2019-02-18T14:20:29.028Z,28.80
2019-02-18T14:22:58.472Z,29.00
2019-02-18T14:25:29.379Z,29.10
2019-02-18T14:27:59.618Z,29.30
2019-02-18T14:30:28.353Z,29.50
2019-02-18T14:32:57.803Z,29.90
2019-02-18T14:37:57.847Z,29.10
2019-02-18T14:40:27.089Z,29.10
2019-02-18T14:42:56.857Z,29.40
2019-02-18T14:45:27.359Z,29.80
2019-02-18T14:47:57.295Z,30.00
2019-02-18T14:50:27.505Z,27.80
2019-02-18T14:52:58.261Z,28.20
2019-02-18T14:57:57.790Z,27.60
2019-02-18T15:00:25.830Z,29.10
2019-02-18T15:02:55.525Z,29.50
2019-02-18T15:05:25.921Z,30.00
2019-02-18T15:07:54.060Z,30.70
2019-02-18T15:10:21.908Z,28.60
2019-02-18T15:12:50.161Z,29.20
2019-02-18T15:15:19.072Z,29.00
2019-02-18T15:17:47.524Z,29.50
2019-02-18T15:20:19.110Z,29.80
2019-02-18T15:22:48.141Z,31.80
2019-02-18T15:25:16.625Z,32.10
2019-02-18T15:27:45.193Z,33.50
2019-02-18T15:30:14.723Z,34.70
2019-02-18T15:32:43.717Z,35.80
2019-02-18T15:35:13.525Z,36.30
2019-02-18T15:40:12.451Z,37.20
2019-02-18T15:42:42.555Z,37.60
2019-02-18T15:45:12.032Z,38.50
2019-02-18T15:47:44.046Z,39.10
2019-02-18T15:50:11.900Z,39.40
2019-02-18T15:52:41.645Z,39.80
2019-02-18T15:55:10.679Z,40.00
2019-02-18T15:57:39.261Z,40.70
2019-02-18T16:00:10.280Z,40.20
2019-02-18T16:02:38.864Z,40.80
2019-02-18T16:05:07.698Z,40.90
2019-02-18T16:07:35.914Z,41.60
2019-02-18T16:10:03.964Z,41.60
2019-02-18T16:12:32.075Z,42.20
2019-02-18T16:15:00.710Z,42.20
2019-02-18T16:17:29.599Z,42.10
2019-02-18T16:22:29.759Z,42.50
2019-02-18T16:24:57.934Z,42.60
2019-02-18T16:27:27.685Z,43.50
2019-02-18T16:29:59.196Z,43.90
2019-02-18T16:34:56.882Z,43.60
2019-02-18T16:37:25.560Z,43.70
2019-02-18T16:39:54.124Z,44.20
2019-02-18T16:42:23.932Z,45.00
2019-02-18T16:44:52.771Z,45.40
2019-02-18T16:47:21.351Z,45.70
2019-02-18T16:49:51.841Z,45.50
2019-02-18T16:52:20.263Z,45.90
2019-02-18T16:54:48.441Z,45.60
2019-02-18T16:57:17.087Z,47.00
2019-02-18T17:02:13.137Z,47.30
2019-02-18T17:04:43.575Z,47.20
2019-02-18T17:07:11.819Z,47.80
2019-02-18T17:09:43.034Z,47.90
2019-02-18T17:12:15.485Z,49.20
2019-02-18T17:14:43.724Z,49.80
2019-02-18T17:17:12.083Z,49.60
2019-02-18T17:19:42.042Z,50.10
2019-02-18T17:22:12.587Z,50.10
2019-02-18T17:24:41.614Z,50.00
2019-02-18T17:27:10.404Z,50.20
2019-02-18T17:32:09.991Z,51.00
2019-02-18T17:37:06.302Z,51.00
2019-02-18T17:39:36.122Z,51.10
2019-02-18T17:42:04.679Z,51.70
2019-02-18T17:44:34.441Z,52.40
2019-02-18T17:47:02.467Z,52.10
2019-02-18T17:49:30.207Z,52.50
2019-02-18T17:51:58.647Z,53.00
2019-02-18T17:54:27.537Z,52.60
2019-02-18T17:56:55.679Z,53.20
2019-02-18T17:59:24.482Z,53.20
2019-02-18T18:01:53.006Z,53.90
2019-02-18T18:04:22.311Z,53.70
2019-02-18T18:06:57.711Z,53.70
2019-02-18T18:09:26.187Z,53.60
2019-02-18T18:12:07.776Z,54.20
2019-02-18T18:14:36.830Z,54.00
2019-02-18T18:17:05.071Z,54.20
2019-02-18T18:19:33.641Z,54.30
2019-02-18T18:22:06.543Z,55.00
2019-02-18T18:24:35.427Z,54.70
2019-02-18T18:27:16.851Z,54.60
2019-02-18T18:29:55.969Z,54.80
2019-02-18T18:32:41.265Z,55.20
2019-02-18T18:35:55.967Z,55.00
2019-02-18T18:38:34.193Z,56.10
2019-02-18T18:41:06.643Z,56.30
2019-02-18T18:43:37.984Z,56.90
2019-02-18T18:46:07.478Z,57.00
2019-02-18T18:48:36.840Z,57.10
2019-02-18T18:51:07.141Z,56.70
2019-02-18T18:53:39.513Z,57.00
2019-02-18T18:56:09.844Z,57.30
2019-02-18T18:58:38.719Z,57.30
2019-02-18T19:03:35.304Z,57.30
2019-02-18T19:06:04.054Z,57.30
2019-02-18T19:08:32.952Z,57.20
2019-02-18T19:11:13.609Z,57.80
2019-02-18T19:13:44.138Z,57.80
2019-02-18T19:16:12.386Z,57.20
2019-02-18T19:18:42.424Z,57.20
2019-02-18T19:21:12.848Z,57.20
2019-02-18T19:23:42.010Z,57.40
2019-02-18T19:26:11.487Z,57.90
2019-02-18T19:28:39.870Z,58.50
2019-02-18T19:31:09.592Z,58.70
2019-02-18T19:33:37.772Z,58.50
2019-02-18T19:36:06.896Z,58.50
2019-02-18T19:38:38.057Z,59.10
2019-02-18T19:41:07.196Z,59.60
2019-02-18T19:43:36.699Z,59.50
2019-02-18T19:46:05.244Z,59.40
2019-02-18T19:48:34.992Z,59.50
2019-02-18T19:51:05.938Z,59.80
2019-02-18T19:53:39.419Z,59.40
2019-02-18T19:56:13.135Z,59.50
2019-02-18T19:58:41.924Z,60.30
2019-02-18T20:01:10.360Z,59.60
2019-02-18T20:03:42.261Z,59.80
2019-02-18T20:06:14.263Z,59.80
2019-02-18T20:08:42.537Z,60.30
2019-02-18T20:11:13.267Z,60.80
2019-02-18T20:13:42.054Z,60.10
2019-02-18T20:16:11.033Z,60.00
2019-02-18T20:18:40.020Z,60.10
2019-02-18T20:21:11.328Z,60.10
2019-02-18T20:23:42.816Z,60.30
2019-02-18T20:26:11.163Z,60.20
2019-02-18T20:28:40.266Z,60.90
2019-02-18T20:31:09.013Z,61.50
2019-02-18T20:33:37.742Z,62.00
2019-02-18T20:36:06.329Z,61.00
2019-02-18T20:38:37.800Z,62.00
2019-02-18T20:41:06.086Z,60.90
2019-02-18T20:43:34.989Z,61.60
2019-02-18T20:46:04.169Z,61.20
2019-02-18T20:48:33.627Z,61.70
2019-02-18T20:51:07.053Z,61.70
2019-02-18T20:53:36.966Z,61.60
2019-02-18T20:56:05.665Z,61.10
2019-02-18T20:58:34.489Z,61.30
2019-02-18T21:01:02.971Z,61.00
2019-02-18T21:03:31.830Z,61.60
2019-02-18T21:06:00.075Z,63.00
2019-02-18T21:08:28.711Z,62.80
2019-02-18T21:10:58.087Z,62.00
2019-02-18T21:13:27.188Z,62.60
2019-02-18T21:15:56.038Z,62.20
2019-02-18T21:18:23.783Z,63.00
2019-02-18T21:20:52.046Z,62.60
2019-02-18T21:23:21.907Z,62.10
2019-02-18T21:25:51.465Z,62.20
2019-02-18T21:28:20.648Z,61.50
2019-02-18T21:30:49.268Z,62.30
2019-02-18T21:33:18.341Z,61.80
2019-02-18T21:35:47.208Z,62.40
2019-02-18T21:38:15.921Z,62.10
2019-02-18T21:40:44.193Z,61.80
2019-02-18T21:43:12.894Z,62.10
2019-02-18T21:45:41.346Z,62.40
2019-02-18T21:48:09.778Z,62.80
2019-02-18T21:50:38.632Z,63.00
2019-02-18T21:53:07.307Z,63.50
2019-02-18T21:55:40.927Z,63.20
2019-02-18T21:58:09.177Z,63.00
2019-02-18T22:00:37.758Z,63.50
2019-02-18T22:03:08.999Z,63.40
2019-02-18T22:05:36.779Z,63.60
2019-02-18T22:08:05.631Z,64.30
2019-02-18T22:10:36.722Z,63.90
2019-02-18T22:13:07.340Z,63.60
2019-02-18T22:15:37.847Z,63.00
2019-02-18T22:18:06.255Z,63.90
2019-02-18T22:20:34.699Z,63.60
2019-02-18T22:23:03.938Z,63.60
2019-02-18T22:25:32.318Z,63.90
2019-02-18T22:28:00.402Z,64.00
2019-02-18T22:30:31.843Z,64.00
2019-02-18T22:33:00.564Z,65.00
2019-02-18T22:35:29.000Z,64.90
2019-02-18T22:37:57.255Z,65.10
2019-02-18T22:40:26.246Z,64.90
2019-02-18T22:42:55.419Z,64.50
2019-02-18T22:45:23.876Z,63.90
2019-02-18T22:47:51.620Z,63.90
2019-02-18T22:50:22.739Z,63.90
2019-02-18T22:52:53.078Z,63.90
2019-02-18T22:55:22.600Z,64.00
2019-02-18T22:57:51.080Z,63.90
2019-02-18T23:00:42.940Z,63.80
2019-02-18T23:03:13.244Z,63.30
2019-02-18T23:05:41.392Z,63.80
2019-02-18T23:08:10.904Z,63.90
2019-02-18T23:10:39.879Z,63.90
2019-02-18T23:23:52.640Z,64.30
2019-02-18T23:26:21.380Z,64.10
2019-02-18T23:28:49.313Z,63.90
2019-02-18T23:31:17.026Z,64.50
2019-02-18T23:33:45.897Z,64.20
2019-02-18T23:36:14.195Z,64.20
2019-02-18T23:38:45.937Z,64.50
2019-02-18T23:41:14.610Z,64.60
2019-02-18T23:43:42.578Z,63.70
2019-02-18T23:46:10.968Z,63.80
2019-02-18T23:48:40.053Z,64.50
2019-02-18T23:53:36.528Z,64.10
2019-02-18T23:56:03.830Z,64.30
2019-02-18T23:58:31.770Z,64.80
